Time;durP1;ratioP1;P1;durP2;ratioP2;P2;SDS_P1;SDS_P2;PMS_P1;PMS_P2;Temp;Humidity;BMP_temperature;BMP_pressure;BME280_temperature;BME280_humidity;BME280_pressure;Samples;Min_cycle;Max_cycle;Signal;HPM_P1;HPM_P2
2023/05/04 00:01:36;;;;;;;;;;;;;;;7.80;68.44;102038.72;5076115;28;1474;-77
2023/05/04 00:04:03;;;;;;;;;;;;;;;7.79;68.50;102043.22;5081221;28;1545;-77
2023/05/04 00:06:30;;;;;;;;;;;;;;;7.78;68.06;102044.22;5077341;28;1965;-78
2023/05/04 00:08:56;;;;;;;;;;;;;;;7.77;68.14;102047.94;5076448;28;1649;-79
2023/05/04 00:11:23;;;;;;;;;;;;;;;7.77;68.07;102041.72;5076245;28;1584;-80
2023/05/04 00:13:49;;;;;;;;;;;;;;;7.77;68.33;102041.72;5075016;28;1918;-79
2023/05/04 00:16:16;;;;;;;;;;;;;;;7.76;68.06;102043.56;5073707;28;1549;-79
2023/05/04 00:18:42;;;;;;;;;;;;;;;7.74;68.42;102049.09;5075172;28;1774;-78
2023/05/04 00:21:09;;;;;;;;;;;;;;;7.73;68.09;102047.44;5078728;28;1621;-78
2023/05/04 00:23:35;;;;;;;;;;;;;;;7.74;68.32;102059.00;5076635;28;1777;-78
2023/05/04 00:26:02;;;;;;;;;;;;;;;7.72;68.35;102050.25;5073843;28;1695;-78
2023/05/04 00:28:29;;;;;;;;;;;;;;;7.71;68.07;102054.78;5075438;28;1905;-78
2023/05/04 00:30:55;;;;;;;;;;;;;;;7.72;68.16;102055.63;5073062;28;1726;-79
2023/05/04 00:33:22;;;;;;;;;;;;;;;7.71;67.80;102053.97;5073787;28;1913;-79
2023/05/04 00:35:48;;;;;;;;;;;;;;;7.70;68.17;102053.09;5075654;28;4498;-79
2023/05/04 00:38:16;;;;;;;;;;;;;;;7.70;68.10;102065.66;5078624;28;2593;-79
2023/05/04 00:40:43;;;;;;;;;;;;;;;7.68;68.29;102063.16;5078333;28;2957;-80
2023/05/04 00:43:09;;;;;;;;;;;;;;;7.68;68.26;102065.84;5084477;28;1638;-81
2023/05/04 00:45:36;;;;;;;;;;;;;;;7.67;67.98;102074.88;5072804;28;1466;-80
2023/05/04 00:48:03;;;;;;;;;;;;;;;7.68;68.05;102071.22;5070445;28;1980;-81
2023/05/04 00:50:29;;;;;;;;;;;;;;;7.66;67.96;102081.25;5076447;28;1494;-79
2023/05/04 00:52:56;;;;;;;;;;;;;;;7.65;68.26;102074.22;5074469;28;3633;-80
2023/05/04 00:55:22;;;;;;;;;;;;;;;7.65;67.87;102073.38;5074256;28;1429;-79
2023/05/04 00:57:49;;;;;;;;;;;;;;;7.64;68.16;102075.19;5070919;28;1391;-80
2023/05/04 01:00:15;;;;;;;;;;;;;;;7.64;67.91;102080.56;5073161;28;1477;-79
2023/05/04 01:02:42;;;;;;;;;;;;;;;7.63;67.97;102083.44;5072030;28;1536;-79
2023/05/04 01:05:08;;;;;;;;;;;;;;;7.63;67.82;102088.78;5074045;28;1968;-77
2023/05/04 01:07:35;;;;;;;;;;;;;;;7.62;68.01;102092.50;5076259;28;1681;-79
2023/05/04 01:10:01;;;;;;;;;;;;;;;7.60;67.84;102089.94;5078180;28;1444;-80
2023/05/04 01:12:28;;;;;;;;;;;;;;;7.61;67.72;102098.84;5073031;28;1918;-78
2023/05/04 01:14:55;;;;;;;;;;;;;;;7.60;68.18;102100.69;5071099;28;1446;-79
2023/05/04 01:17:21;;;;;;;;;;;;;;;7.60;68.08;102099.84;5074457;28;1478;-81
2023/05/04 01:19:49;;;;;;;;;;;;;;;7.59;67.79;102099.00;5069860;28;1684;-79
2023/05/04 01:22:16;;;;;;;;;;;;;;;7.59;67.55;102103.50;5078646;28;1557;-78
2023/05/04 01:24:43;;;;;;;;;;;;;;;7.58;67.71;102101.84;5076645;28;1434;-80
2023/05/04 01:27:09;;;;;;;;;;;;;;;7.56;67.87;102099.34;5087409;28;1450;-79
2023/05/04 01:29:36;;;;;;;;;;;;;;;7.56;67.54;102104.69;5073638;28;1489;-80
2023/05/04 01:32:03;;;;;;;;;;;;;;;7.55;67.89;102113.72;5070318;28;2011;-78
2023/05/04 01:34:29;;;;;;;;;;;;;;;7.55;67.68;102104.84;5074719;28;1585;-79
2023/05/04 01:36:56;;;;;;;;;;;;;;;7.54;67.65;102108.53;5074294;28;2105;-79
2023/05/04 01:39:22;;;;;;;;;;;;;;;7.54;67.40;102116.59;5075118;28;1499;-79
2023/05/04 01:41:49;;;;;;;;;;;;;;;7.52;67.63;102111.38;5074884;28;1471;-79
2023/05/04 01:44:16;;;;;;;;;;;;;;;7.52;67.65;102114.03;5070925;28;1481;-80
2023/05/04 01:46:43;;;;;;;;;;;;;;;7.52;67.91;102114.03;5071914;28;1706;-79
2023/05/04 01:49:09;;;;;;;;;;;;;;;7.51;67.53;102120.41;5071615;28;1513;-79
2023/05/04 01:51:36;;;;;;;;;;;;;;;7.50;67.58;102121.44;5071122;28;1380;-79
2023/05/04 01:54:02;;;;;;;;;;;;;;;7.50;67.72;102121.44;5069467;28;1925;-81
2023/05/04 01:56:29;;;;;;;;;;;;;;;7.48;67.41;102120.75;5085730;28;1643;-79
2023/05/04 01:58:55;;;;;;;;;;;;;;;7.48;67.46;102126.94;5068900;28;1976;-79
2023/05/04 02:01:22;;;;;;;;;;;;;;;7.47;67.75;102127.09;5068218;28;1695;-78
2023/05/04 02:03:48;;;;;;;;;;;;;;;7.47;67.64;102129.78;5069077;28;1450;-78
2023/05/04 02:06:15;;;;;;;;;;;;;;;7.46;67.54;102128.94;5089944;28;1571;-78
2023/05/04 02:08:41;;;;;;;;;;;;;;;7.47;67.30;102137.81;5074455;28;1476;-80
2023/05/04 02:11:08;;;;;;;;;;;;;;;7.45;67.38;102137.16;5074549;28;2044;-79
2023/05/04 02:13:35;;;;;;;;;;;;;;;7.45;67.74;102139.84;5068973;28;1906;-79
2023/05/04 02:16:01;;;;;;;;;;;;;;;7.44;67.60;102144.34;5070855;28;1529;-79
2023/05/04 02:18:28;;;;;;;;;;;;;;;7.43;67.62;102139.97;5067809;28;1761;-79
2023/05/04 02:20:54;;;;;;;;;;;;;;;7.44;67.14;102143.50;5079433;28;1849;-78
2023/05/04 02:23:21;;;;;;;;;;;;;;;7.42;67.17;102149.03;5084277;28;1517;-79
2023/05/04 02:25:48;;;;;;;;;;;;;;;7.43;67.34;102152.53;5110279;27;1566;-79
2023/05/04 02:28:14;;;;;;;;;;;;;;;7.42;67.62;102153.56;5090578;27;1547;-77
2023/05/04 02:30:41;;;;;;;;;;;;;;;7.40;67.14;102153.72;5113030;27;1531;-78
2023/05/04 02:33:07;;;;;;;;;;;;;;;7.40;67.45;102152.88;5112905;27;1914;-77
2023/05/04 02:35:34;;;;;;;;;;;;;;;7.39;67.07;102157.41;5092470;28;1577;-78
2023/05/04 02:38:01;;;;;;;;;;;;;;;7.40;67.18;102159.06;5115365;27;1830;-79
2023/05/04 02:40:27;;;;;;;;;;;;;;;7.40;67.03;102155.56;5113011;27;2095;-79
2023/05/04 02:42:54;;;;;;;;;;;;;;;7.39;67.10;102162.75;5112957;27;1706;-77
2023/05/04 02:45:21;;;;;;;;;;;;;;;7.38;67.37;102157.53;5090823;27;1508;-78
2023/05/04 02:47:47;;;;;;;;;;;;;;;7.36;67.04;102162.25;5111589;27;1406;-77
2023/05/04 02:50:14;;;;;;;;;;;;;;;7.35;67.03;102157.88;5113984;27;1584;-76
2023/05/04 02:52:40;;;;;;;;;;;;;;;7.35;67.08;102156.00;5110543;27;1949;-78
2023/05/04 02:55:07;;;;;;;;;;;;;;;7.34;67.05;102165.06;5114189;27;1668;-80
2023/05/04 02:57:33;;;;;;;;;;;;;;;7.33;67.02;102165.25;5092327;27;1555;-77
2023/05/04 03:00:00;;;;;;;;;;;;;;;7.34;66.87;102170.44;5110195;27;1602;-77
2023/05/04 03:02:27;;;;;;;;;;;;;;;7.32;67.34;102171.59;5110557;27;1840;-79
2023/05/04 03:04:53;;;;;;;;;;;;;;;7.32;67.33;102169.72;5093817;27;4352;-79
2023/05/04 03:07:20;;;;;;;;;;;;;;;7.32;66.93;102168.91;5108482;27;2963;-79
2023/05/04 03:09:46;;;;;;;;;;;;;;;7.30;67.08;102162.88;5113324;27;1524;-79
2023/05/04 03:12:13;;;;;;;;;;;;;;;7.30;66.90;102171.75;5098143;28;2866;-78
2023/05/04 03:14:39;;;;;;;;;;;;;;;7.34;66.84;102172.28;5095273;27;1991;-78
2023/05/04 03:17:06;;;;;;;;;;;;;;;7.56;66.58;102178.91;5094399;28;1712;-79
2023/05/04 03:19:33;;;;;;;;;;;;;;;7.58;66.32;102184.97;5111977;27;1504;-78
2023/05/04 03:21:59;;;;;;;;;;;;;;;7.48;66.58;102179.72;5092460;27;1809;-78
2023/05/04 03:24:26;;;;;;;;;;;;;;;7.65;66.01;102180.66;5100235;27;1685;-79
2023/05/04 03:26:53;;;;;;;;;;;;;;;7.50;66.27;102183.09;5097764;27;1644;-79
2023/05/04 03:29:20;;;;;;;;;;;;;;;7.56;66.02;102176.22;5121419;27;1418;-80
2023/05/04 03:31:46;;;;;;;;;;;;;;;7.58;65.99;102183.13;5116333;27;1723;-79
2023/05/04 03:34:13;;;;;;;;;;;;;;;7.99;64.34;102185.13;5115189;27;1979;-79
2023/05/04 03:36:40;;;;;;;;;;;;;;;7.60;65.64;102183.81;5117280;27;1774;-79
2023/05/04 03:39:07;;;;;;;;;;;;;;;7.70;65.05;102183.66;5098490;27;1510;-78
2023/05/04 03:41:33;;;;;;;;;;;;;;;7.52;65.66;102191.78;5103337;27;1882;-78
2023/05/04 03:44:00;;;;;;;;;;;;;;;7.89;64.72;102196.84;5106270;27;1442;-79
2023/05/04 03:46:26;;;;;;;;;;;;;;;7.85;64.54;102190.13;5114624;27;1488;-79
2023/05/04 03:48:53;;;;;;;;;;;;;;;7.75;64.68;102194.75;5095769;27;1731;-78
2023/05/04 03:51:19;;;;;;;;;;;;;;;7.68;64.96;102191.06;5111522;27;1970;-77
2023/05/04 03:53:46;;;;;;;;;;;;;;;7.65;65.41;102196.75;5113406;27;1968;-78
2023/05/04 03:56:12;;;;;;;;;;;;;;;7.70;65.26;102197.06;5105154;27;1565;-78
2023/05/04 03:58:39;;;;;;;;;;;;;;;7.39;66.24;102194.09;5095555;27;1850;-78
2023/05/04 04:01:06;;;;;;;;;;;;;;;7.47;65.97;102203.03;5114214;27;1488;-77
2023/05/04 04:03:35;;;;;;;;;;;;;;;7.66;65.06;102191.19;5114693;27;1456;-78
2023/05/04 04:06:02;;;;;;;;;;;;;;;7.93;64.19;102194.66;5114342;27;1407;-78
2023/05/04 04:08:29;;;;;;;;;;;;;;;8.01;63.87;102210.81;5118113;27;1442;-78
2023/05/04 04:10:55;;;;;;;;;;;;;;;8.06;64.01;102202.25;5117441;27;1485;-79
2023/05/04 04:13:22;;;;;;;;;;;;;;;7.84;64.36;102201.00;5104484;27;1910;-78
2023/05/04 04:15:49;;;;;;;;;;;;;;;7.69;64.93;102206.97;5113550;27;1501;-77
2023/05/04 04:18:16;;;;;;;;;;;;;;;7.93;64.18;102205.41;5105460;27;1491;-77
2023/05/04 04:20:42;;;;;;;;;;;;;;;7.67;64.44;102206.28;5116256;27;1906;-79
2023/05/04 04:23:09;;;;;;;;;;;;;;;7.69;64.41;102211.50;5099080;27;1608;-79
2023/05/04 04:25:36;;;;;;;;;;;;;;;7.93;64.26;102205.41;5097395;27;1527;-79
2023/05/04 04:28:02;;;;;;;;;;;;;;;7.81;64.00;102212.06;5099701;27;1496;-78
2023/05/04 04:30:29;;;;;;;;;;;;;;;7.73;64.05;102211.03;5115230;27;1734;-78
2023/05/04 04:32:55;;;;;;;;;;;;;;;7.60;64.44;102215.97;5099035;27;1910;-77
2023/05/04 04:35:22;;;;;;;;;;;;;;;7.66;64.55;102214.50;5123962;27;1481;-78
2023/05/04 04:37:49;;;;;;;;;;;;;;;7.77;63.93;102214.22;5116737;27;1750;-79
2023/05/04 04:40:15;;;;;;;;;;;;;;;7.92;64.00;102220.66;5111985;27;1852;-79
2023/05/04 04:42:42;;;;;;;;;;;;;;;7.47;65.21;102228.97;5119397;27;1830;-77
2023/05/04 04:45:08;;;;;;;;;;;;;;;7.48;65.07;102225.31;5112487;27;1956;-77
2023/05/04 04:47:35;;;;;;;;;;;;;;;7.65;64.77;102221.72;5096087;27;1796;-80
2023/05/04 04:50:02;;;;;;;;;;;;;;;7.75;64.24;102226.94;5112731;27;1469;-79
2023/05/04 04:52:28;;;;;;;;;;;;;;;7.49;64.84;102225.13;5115097;27;1536;-79
2023/05/04 04:54:55;;;;;;;;;;;;;;;7.54;64.79;102224.66;5100052;27;1992;-80
2023/05/04 04:57:21;;;;;;;;;;;;;;;7.93;63.62;102237.59;5101823;27;1874;-78
2023/05/04 04:59:48;;;;;;;;;;;;;;;7.71;64.10;102239.84;5120705;27;2018;-79
2023/05/04 05:02:15;;;;;;;;;;;;;;;7.57;64.54;102242.28;5116569;27;2063;-78
2023/05/04 05:04:41;;;;;;;;;;;;;;;7.54;64.22;102246.13;5128349;27;1060;-78
2023/05/04 05:07:09;;;;;;;;;;;;;;;7.37;64.81;102241.66;5132281;27;1737;-78
2023/05/04 05:09:35;;;;;;;;;;;;;;;7.49;64.88;102243.06;5118280;27;1584;-78
2023/05/04 05:12:02;;;;;;;;;;;;;;;7.43;64.89;102244.53;5102469;28;1365;-78
2023/05/04 05:14:30;;;;;;;;;;;;;;;7.40;65.03;102255.56;5101362;27;1979;-78
2023/05/04 05:16:57;;;;;;;;;;;;;;;7.64;63.96;102254.88;5114198;27;1583;-78
2023/05/04 05:19:23;;;;;;;;;;;;;;;7.57;64.57;102253.00;5095048;27;1682;-78
2023/05/04 05:21:50;;;;;;;;;;;;;;;7.56;64.21;102256.66;5116963;27;1422;-77
2023/05/04 05:24:16;;;;;;;;;;;;;;;7.59;64.04;102253.66;5122798;27;1572;-78
2023/05/04 05:26:43;;;;;;;;;;;;;;;7.55;64.67;102255.84;5113955;27;3988;-79
2023/05/04 05:29:10;;;;;;;;;;;;;;;7.39;65.00;102253.91;5124378;27;1893;-79
2023/05/04 05:31:42;;;;;;;;;;;;;;;7.59;63.84;102257.22;5118441;27;3141;-78
2023/05/04 05:34:08;;;;;;;;;;;;;;;7.44;64.74;102259.63;5101310;27;1913;-78
2023/05/04 05:36:35;;;;;;;;;;;;;;;7.57;64.22;102264.56;5116277;27;2337;-80
2023/05/04 05:39:01;;;;;;;;;;;;;;;7.38;64.32;102254.91;5133162;27;1011;-79
2023/05/04 05:41:28;;;;;;;;;;;;;;;7.60;64.00;102253.53;5125871;27;1571;-78
2023/05/04 05:43:58;;;;;;;;;;;;;;;7.41;64.62;102249.22;5131833;27;3620;-79
2023/05/04 05:46:26;;;;;;;;;;;;;;;7.50;64.13;102247.44;5110445;27;1625;-80
2023/05/04 05:48:55;;;;;;;;;;;;;;;7.52;64.31;102264.19;5113848;27;1378;-81
2023/05/04 05:51:23;;;;;;;;;;;;;;;7.69;63.80;102255.25;5112436;27;1785;-82
2023/05/04 05:53:50;;;;;;;;;;;;;;;7.61;63.50;102260.56;5090561;27;1997;-80
2023/05/04 05:56:17;;;;;;;;;;;;;;;7.68;63.86;102258.09;5111290;27;1590;-78
2023/05/04 05:58:43;;;;;;;;;;;;;;;7.74;63.51;102257.47;5106769;27;1506;-80
2023/05/04 06:01:11;;;;;;;;;;;;;;;7.48;64.11;102263.66;5088446;27;1983;-79
2023/05/04 06:03:38;;;;;;;;;;;;;;;7.68;63.81;102258.94;5091872;27;1372;-79
2023/05/04 06:06:06;;;;;;;;;;;;;;;7.51;64.08;102258.00;5095280;27;1489;-81
2023/05/04 06:08:36;;;;;;;;;;;;;;;7.63;63.99;102260.41;5109657;27;1449;-80
2023/05/04 06:11:03;;;;;;;;;;;;;;;7.55;63.66;102255.00;5112163;27;1570;-80
2023/05/04 06:13:29;;;;;;;;;;;;;;;7.53;63.90;102271.25;5106939;27;1971;-82
2023/05/04 06:15:56;;;;;;;;;;;;;;;7.72;63.00;102262.97;5113599;27;1512;-82
2023/05/04 06:18:24;;;;;;;;;;;;;;;7.54;63.87;102266.72;5092782;27;1449;-81
2023/05/04 06:20:51;;;;;;;;;;;;;;;7.41;64.03;102270.69;5110111;27;1991;-81
2023/05/04 06:23:18;;;;;;;;;;;;;;;7.34;64.42;102272.28;5115800;27;1813;-81
2023/05/04 06:25:44;;;;;;;;;;;;;;;7.60;63.51;102279.50;5113387;27;1494;-82
2023/05/04 06:28:11;;;;;;;;;;;;;;;7.48;64.07;102276.25;5104029;28;1833;-80
2023/05/04 06:30:37;;;;;;;;;;;;;;;7.68;63.51;102271.50;5107104;27;1910;-81
2023/05/04 06:33:04;;;;;;;;;;;;;;;7.69;63.66;102278.53;5105681;27;1906;-83
2023/05/04 06:35:31;;;;;;;;;;;;;;;7.57;63.68;102282.50;5095300;27;1918;-82
2023/05/04 06:37:57;;;;;;;;;;;;;;;7.57;63.67;102280.66;5110119;27;1556;-82
2023/05/04 06:40:27;;;;;;;;;;;;;;;7.40;64.02;102287.75;5109161;27;1621;-81
2023/05/04 06:42:53;;;;;;;;;;;;;;;7.43;63.77;102281.22;5113423;27;1740;-81
2023/05/04 06:45:20;;;;;;;;;;;;;;;7.56;63.91;102280.78;5100018;28;1732;-84
2023/05/04 06:47:46;;;;;;;;;;;;;;;7.48;63.96;102278.91;5116929;27;1729;-82
2023/05/04 06:50:16;;;;;;;;;;;;;;;7.42;64.04;102282.25;5119163;28;2439;-82
2023/05/04 06:52:45;;;;;;;;;;;;;;;7.42;63.95;102285.75;5120727;28;1618;-81
2023/05/04 06:55:12;;;;;;;;;;;;;;;7.55;63.65;102277.28;5103540;28;1973;-83
2023/05/04 06:57:39;;;;;;;;;;;;;;;7.32;64.41;102281.47;5116623;27;1829;-82
2023/05/04 07:00:05;;;;;;;;;;;;;;;7.37;63.77;102282.69;5102971;27;2124;-82
2023/05/04 07:02:32;;;;;;;;;;;;;;;7.13;64.72;102282.50;5103790;27;1525;-82
2023/05/04 07:04:59;;;;;;;;;;;;;;;7.34;64.02;102285.69;5103460;27;1484;-83
2023/05/04 07:07:26;;;;;;;;;;;;;;;7.48;63.89;102274.41;5125643;27;1399;-83
2023/05/04 07:09:52;;;;;;;;;;;;;;;7.13;64.76;102279.84;5106055;27;1630;-84
2023/05/04 07:12:19;;;;;;;;;;;;;;;7.35;64.12;102267.75;5129553;27;1464;-82
2023/05/04 07:14:45;;;;;;;;;;;;;;;7.19;64.72;102280.03;5108634;27;1914;-83
2023/05/04 07:17:13;;;;;;;;;;;;;;;7.20;64.41;102275.53;5127264;27;1950;-82
2023/05/04 07:19:39;;;;;;;;;;;;;;;7.13;64.67;102274.47;5122405;27;1518;-83
2023/05/04 07:22:06;;;;;;;;;;;;;;;7.30;64.47;102278.97;5119820;27;1714;-83
2023/05/04 07:24:32;;;;;;;;;;;;;;;7.13;64.68;102279.84;5123174;27;1374;-84
2023/05/04 07:26:59;;;;;;;;;;;;;;;7.24;64.34;102275.06;5116579;27;1629;-84
2023/05/04 07:29:26;;;;;;;;;;;;;;;7.18;64.75;102281.06;5106264;27;1898;-84
2023/05/04 07:31:53;;;;;;;;;;;;;;;7.02;65.02;102280.91;5118060;27;1697;-84
2023/05/04 07:34:20;;;;;;;;;;;;;;;7.20;64.24;102273.69;5119283;27;1979;-85
2023/05/04 07:36:46;;;;;;;;;;;;;;;6.99;65.45;102274.00;5115976;27;2028;-85
2023/05/04 07:39:15;;;;;;;;;;;;;;;6.96;65.28;102282.34;5120881;27;2028;-85
2023/05/04 07:41:41;;;;;;;;;;;;;;;7.18;64.58;102274.84;5119614;27;1493;-85
2023/05/04 07:44:10;;;;;;;;;;;;;;;6.97;65.48;102277.84;5119434;27;1501;-85
2023/05/04 07:46:36;;;;;;;;;;;;;;;6.92;65.82;102274.81;5102544;27;1374;-85
2023/05/04 07:49:03;;;;;;;;;;;;;;;6.89;65.50;102272.44;5123059;27;1597;-86
2023/05/04 07:51:29;;;;;;;;;;;;;;;6.90;65.53;102279.47;5118066;27;1440;-84
2023/05/04 07:53:56;;;;;;;;;;;;;;;6.97;65.57;102278.69;5117940;27;1972;-85
2023/05/04 07:56:23;;;;;;;;;;;;;;;7.00;65.14;102273.03;5117488;27;4826;-86
2023/05/04 07:58:50;;;;;;;;;;;;;;;6.91;65.52;102273.97;5101715;27;2804;-85
2023/05/04 08:01:17;;;;;;;;;;;;;;;6.98;65.17;102276.84;5118191;27;2957;-84
2023/05/04 08:03:44;;;;;;;;;;;;;;;7.21;64.73;102271.88;5102685;27;1609;-85
2023/05/04 08:06:11;;;;;;;;;;;;;;;7.15;64.99;102267.13;5100175;27;1641;-85
2023/05/04 08:08:38;;;;;;;;;;;;;;;6.98;65.13;102274.19;5115965;27;1628;-85
2023/05/04 08:11:05;;;;;;;;;;;;;;;7.13;65.05;102267.28;5123981;27;1845;-86
2023/05/04 08:13:31;;;;;;;;;;;;;;;7.05;65.22;102269.88;5121244;27;2222;-85
2023/05/04 08:16:00;;;;;;;;;;;;;;;7.22;64.76;102273.53;5103757;27;5168;-85
2023/05/04 08:18:26;;;;;;;;;;;;;;;7.39;64.24;102267.31;5118131;27;1661;-84
2023/05/04 08:20:53;;;;;;;;;;;;;;;7.17;64.55;102265.94;5119685;27;1521;-85
2023/05/04 08:23:20;;;;;;;;;;;;;;;7.06;64.87;102276.94;5119848;27;1677;-84
2023/05/04 08:25:46;;;;;;;;;;;;;;;7.11;65.29;102269.25;5107873;27;1467;-84
2023/05/04 08:28:13;;;;;;;;;;;;;;;7.02;65.32;102260.31;5122802;27;1523;-85
2023/05/04 08:30:39;;;;;;;;;;;;;;;6.92;65.50;102261.41;5103496;27;1730;-86
2023/05/04 08:33:07;;;;;;;;;;;;;;;6.89;65.64;102264.41;5100822;28;1581;-86
2023/05/04 08:35:33;;;;;;;;;;;;;;;6.98;65.28;102261.63;5126565;27;5223;-85
2023/05/04 08:38:00;;;;;;;;;;;;;;;7.08;65.20;102255.34;5108327;27;1411;-86
2023/05/04 08:40:26;;;;;;;;;;;;;;;7.37;64.19;102261.25;5100800;28;1823;-86
2023/05/04 08:42:53;;;;;;;;;;;;;;;7.46;64.20;102260.28;5116276;27;1426;-86
2023/05/04 08:45:20;;;;;;;;;;;;;;;7.19;64.51;102263.13;5101333;27;1586;-86
2023/05/04 08:47:46;;;;;;;;;;;;;;;7.12;64.89;102260.25;5099246;27;1589;-86
2023/05/04 08:50:13;;;;;;;;;;;;;;;6.98;65.32;102263.47;5118403;27;1357;-86
2023/05/04 08:52:40;;;;;;;;;;;;;;;6.91;65.84;102265.94;5116919;27;1507;-87
2023/05/04 08:55:06;;;;;;;;;;;;;;;6.91;65.64;102271.28;5105704;27;1917;-86
2023/05/04 08:57:33;;;;;;;;;;;;;;;7.25;65.10;102265.19;5103049;27;1661;-86
2023/05/04 09:00:00;;;;;;;;;;;;;;;7.10;64.98;102264.91;5118904;27;1576;-87
2023/05/04 09:02:26;;;;;;;;;;;;;;;6.93;65.65;102265.75;5125306;27;1527;-86
2023/05/04 09:04:53;;;;;;;;;;;;;;;6.88;65.79;102266.19;5121633;27;1544;-86
2023/05/04 09:07:19;;;;;;;;;;;;;;;7.01;65.46;102260.47;5120378;27;1960;-85
2023/05/04 09:09:47;;;;;;;;;;;;;;;6.96;65.78;102265.44;5105015;27;1477;-88
2023/05/04 09:12:13;;;;;;;;;;;;;;;6.89;65.96;102259.88;5120000;27;1501;-87
2023/05/04 09:14:40;;;;;;;;;;;;;;;6.89;65.80;102254.50;5102461;27;1918;-86
2023/05/04 09:17:06;;;;;;;;;;;;;;;6.90;66.13;102255.34;5123353;27;1404;-87
2023/05/04 09:19:33;;;;;;;;;;;;;;;6.90;66.12;102252.69;5098380;28;1411;-87
2023/05/04 09:22:00;;;;;;;;;;;;;;;6.88;66.28;102247.47;5119497;27;1477;-86
2023/05/04 09:24:27;;;;;;;;;;;;;;;6.89;65.99;102245.66;5123388;27;1529;-86
2023/05/04 09:26:53;;;;;;;;;;;;;;;6.90;66.26;102253.50;5124010;27;1669;-84
2023/05/04 09:29:21;;;;;;;;;;;;;;;6.90;66.22;102242.78;5104629;27;1521;-85
2023/05/04 09:31:48;;;;;;;;;;;;;;;6.90;66.06;102247.31;5120303;27;1536;-87
2023/05/04 09:34:15;;;;;;;;;;;;;;;6.91;66.07;102239.13;5118483;27;1967;-86
2023/05/04 09:36:41;;;;;;;;;;;;;;;6.92;66.20;102246.16;5106559;27;1695;-87
2023/05/04 09:39:09;;;;;;;;;;;;;;;6.92;66.31;102248.84;5122194;27;1901;-86
2023/05/04 09:41:35;;;;;;;;;;;;;;;6.91;66.35;102247.19;5121604;27;1455;-87
2023/05/04 09:44:03;;;;;;;;;;;;;;;6.90;66.50;102245.47;5123830;27;1530;-87
2023/05/04 09:46:30;;;;;;;;;;;;;;;6.92;66.50;102254.22;5120432;27;1678;-85
2023/05/04 09:48:56;;;;;;;;;;;;;;;6.94;66.16;102249.53;5120746;27;1436;-86
2023/05/04 09:51:23;;;;;;;;;;;;;;;6.95;66.28;102253.91;5108000;27;1588;-85
2023/05/04 09:53:50;;;;;;;;;;;;;;;6.94;66.25;102246.88;5121033;27;1676;-87
2023/05/04 09:56:17;;;;;;;;;;;;;;;6.95;66.19;102251.22;5119259;27;1910;-86
2023/05/04 09:58:44;;;;;;;;;;;;;;;6.95;66.17;102245.84;5102848;27;1636;-86
2023/05/04 10:01:11;;;;;;;;;;;;;;;6.97;66.29;102243.88;5120096;27;1638;-86
2023/05/04 10:03:37;;;;;;;;;;;;;;;6.98;66.41;102242.03;5116904;27;1580;-86
2023/05/04 10:06:04;;;;;;;;;;;;;;;6.98;66.24;102244.72;5119893;27;1781;-86
2023/05/04 10:08:30;;;;;;;;;;;;;;;6.99;66.39;102249.06;5121593;27;5008;-86
2023/05/04 10:10:57;;;;;;;;;;;;;;;6.99;66.37;102246.38;5115598;27;5397;-86
2023/05/04 10:13:24;;;;;;;;;;;;;;;6.99;66.13;102243.72;5122142;27;1912;-87
2023/05/04 10:15:50;;;;;;;;;;;;;;;6.99;66.49;102249.91;5099824;27;1913;-87
2023/05/04 10:18:17;;;;;;;;;;;;;;;7.01;66.18;102247.09;5118165;27;1655;-87
2023/05/04 10:20:44;;;;;;;;;;;;;;;7.01;66.72;102239.88;5103772;28;1588;-86
2023/05/04 10:23:11;;;;;;;;;;;;;;;7.02;66.35;102244.22;5121110;27;1407;-87
2023/05/04 10:25:37;;;;;;;;;;;;;;;7.03;66.49;102243.25;5113055;27;4757;-87
2023/05/04 10:28:04;;;;;;;;;;;;;;;7.03;66.70;102235.22;5100434;28;3022;-87
2023/05/04 10:30:31;;;;;;;;;;;;;;;7.03;66.54;102229.03;5103430;27;1482;-87
2023/05/04 10:32:57;;;;;;;;;;;;;;;7.11;52.69;102222.88;5100099;28;2372;-85
2023/05/04 10:35:24;;;;;;;;;;;;;;;7.10;57.42;102235.44;5104247;28;1914;-85
2023/05/04 10:37:50;;;;;;;;;;;;;;;7.10;61.68;102226.56;5109020;28;1432;-86
2023/05/04 10:40:17;;;;;;;;;;;;;;;7.09;63.37;102224.84;5101344;28;1507;-86
2023/05/04 10:42:44;;;;;;;;;;;;;;;7.08;64.04;102224.00;5101467;28;1542;-85
2023/05/04 10:45:11;;;;;;;;;;;;;;;7.08;64.05;102217.81;5103858;28;3399;-85
2023/05/04 10:47:39;;;;;;;;;;;;;;;7.09;64.32;102219.50;5104853;28;1209;-86
2023/05/04 10:50:06;;;;;;;;;;;;;;;7.09;64.73;102222.16;5115849;28;1584;-86
2023/05/04 10:52:32;;;;;;;;;;;;;;;7.10;64.98;102216.66;5117082;28;1452;-85
2023/05/04 10:54:59;;;;;;;;;;;;;;;7.10;65.10;102208.63;5116889;28;1914;-86
2023/05/04 10:57:27;;;;;;;;;;;;;;;7.10;65.48;102214.00;5099387;28;1344;-84
2023/05/04 10:59:54;;;;;;;;;;;;;;;7.13;65.19;102212.84;5101460;28;1704;-86
2023/05/04 11:02:21;;;;;;;;;;;;;;;7.12;65.74;102212.00;5103663;28;1517;-86
2023/05/04 11:04:48;;;;;;;;;;;;;;;7.13;65.43;102211.00;5097338;28;1887;-87
2023/05/04 11:07:14;;;;;;;;;;;;;;;7.13;65.86;102208.31;5098005;28;1769;-86
2023/05/04 11:09:41;;;;;;;;;;;;;;;7.14;65.70;102207.31;5117712;28;1874;-86
2023/05/04 11:12:09;;;;;;;;;;;;;;;7.16;65.72;102207.16;5099487;28;1656;-85
2023/05/04 11:14:40;;;;;;;;;;;;;;;7.16;66.29;102208.00;5117019;28;1501;-86
2023/05/04 11:17:06;;;;;;;;;;;;;;;7.16;66.16;102191.94;5114596;28;1552;-86
2023/05/04 11:19:33;;;;;;;;;;;;;;;7.18;66.17;102195.31;5120293;28;1502;-86
2023/05/04 11:22:00;;;;;;;;;;;;;;;7.19;66.22;102188.09;5115220;28;1473;-86
2023/05/04 11:24:32;;;;;;;;;;;;;;;7.20;66.54;102195.13;5100745;28;1522;-86
2023/05/04 11:26:59;;;;;;;;;;;;;;;7.20;66.33;102193.28;5098733;28;1592;-86
2023/05/04 11:29:25;;;;;;;;;;;;;;;7.21;66.76;102186.09;5117988;28;1556;-86
2023/05/04 11:31:52;;;;;;;;;;;;;;;7.23;66.47;102192.13;5123162;28;1892;-84
2023/05/04 11:34:18;;;;;;;;;;;;;;;7.25;66.41;102179.41;5118577;28;1454;-86
2023/05/04 11:36:45;;;;;;;;;;;;;;;7.27;66.58;102183.63;5097398;28;2120;-87
2023/05/04 11:39:12;;;;;;;;;;;;;;;7.30;66.57;102176.28;5098664;28;1625;-87
2023/05/04 11:41:38;;;;;;;;;;;;;;;7.28;66.63;102181.78;5117461;28;1505;-86
2023/05/04 11:44:05;;;;;;;;;;;;;;;7.27;66.86;102175.59;5118054;27;1544;-87
2023/05/04 11:46:33;;;;;;;;;;;;;;;7.28;66.79;102171.91;5101555;27;1660;-88
2023/05/04 11:48:59;;;;;;;;;;;;;;;7.30;67.05;102178.97;5105806;27;1432;-87
2023/05/04 11:51:26;;;;;;;;;;;;;;;7.33;67.03;102170.59;5110999;27;1203;-85
2023/05/04 11:53:53;;;;;;;;;;;;;;;7.35;66.95;102180.13;5110056;27;1584;-87
2023/05/04 11:56:19;;;;;;;;;;;;;;;7.34;66.82;102169.59;5136605;27;1918;-86
2023/05/04 11:58:46;;;;;;;;;;;;;;;7.35;66.96;102177.47;5119749;27;1319;-88
2023/05/04 12:01:12;;;;;;;;;;;;;;;7.37;66.78;102175.47;5129724;27;1742;-87
2023/05/04 12:03:41;;;;;;;;;;;;;;;7.38;66.95;102182.53;5121606;27;1532;-86
2023/05/04 12:06:07;;;;;;;;;;;;;;;7.41;67.14;102175.97;5135971;27;1614;-86
2023/05/04 12:08:34;;;;;;;;;;;;;;;7.41;67.00;102175.97;5118958;27;1208;-86
2023/05/04 12:11:01;;;;;;;;;;;;;;;7.41;67.06;102176.84;5123617;27;1284;-87
2023/05/04 12:13:28;;;;;;;;;;;;;;;7.43;67.19;102174.00;5129386;27;1351;-87
2023/05/04 12:15:54;;;;;;;;;;;;;;;7.44;67.38;102179.22;5135566;27;1934;-86
2023/05/04 12:18:22;;;;;;;;;;;;;;;7.46;67.28;102179.88;5122160;27;2013;-86
2023/05/04 12:20:48;;;;;;;;;;;;;;;7.48;67.37;102187.78;5124559;27;2029;-87
2023/05/04 12:23:15;;;;;;;;;;;;;;;7.48;67.45;102185.09;5135712;27;1196;-87
2023/05/04 12:25:41;;;;;;;;;;;;;;;7.49;67.40;102187.59;5130300;27;1135;-86
2023/05/04 12:28:08;;;;;;;;;;;;;;;7.50;67.43;102189.28;5132691;27;847;-86
2023/05/04 12:30:35;;;;;;;;;;;;;;;7.51;67.14;102176.72;5110433;27;1483;-85
2023/05/04 12:33:04;;;;;;;;;;;;;;;7.51;67.64;102180.25;5111712;27;1261;-87
2023/05/04 12:35:30;;;;;;;;;;;;;;;7.52;67.52;102178.41;5131397;27;1969;-85
2023/05/04 12:37:57;;;;;;;;;;;;;;;7.54;67.58;102171.03;5133473;27;2089;-86
2023/05/04 12:40:25;;;;;;;;;;;;;;;7.57;67.56;102169.88;5131682;27;1687;-86
2023/05/04 12:42:53;;;;;;;;;;;;;;;7.58;67.38;102163.50;5112892;27;1425;-87
2023/05/04 12:45:22;;;;;;;;;;;;;;;7.60;67.32;102173.06;5104268;27;1763;-86
2023/05/04 12:47:49;;;;;;;;;;;;;;;7.62;67.52;102170.25;5133225;27;2136;-85
2023/05/04 12:50:16;;;;;;;;;;;;;;;7.64;67.60;102170.91;5093696;27;1657;-87
2023/05/04 12:52:42;;;;;;;;;;;;;;;7.64;67.80;102165.53;5093996;27;1446;-86
2023/05/04 12:55:09;;;;;;;;;;;;;;;7.64;67.39;102166.38;5089146;27;4926;-86